createdAt,value
2019-06-26T00:02:06.435Z,99.90
2019-06-26T00:04:37.572Z,99.90
2019-06-26T00:07:08.787Z,99.90
2019-06-26T00:09:40.125Z,99.90
2019-06-26T00:12:12.811Z,99.90
2019-06-26T00:14:43.976Z,99.90
2019-06-26T00:17:15.164Z,99.90
2019-06-26T00:19:46.200Z,99.90
2019-06-26T00:22:17.332Z,99.90
2019-06-26T00:24:48.416Z,99.90
2019-06-26T00:27:19.489Z,99.90
2019-06-26T00:29:50.647Z,99.90
2019-06-26T00:32:21.920Z,99.90
2019-06-26T00:34:53.105Z,99.90
2019-06-26T00:37:24.164Z,99.90
2019-06-26T00:39:55.369Z,99.90
2019-06-26T00:42:26.551Z,99.90
2019-06-26T00:44:57.665Z,99.90
2019-06-26T00:47:28.873Z,99.90
2019-06-26T00:50:00.155Z,99.90
2019-06-26T00:52:31.350Z,99.90
2019-06-26T00:55:02.471Z,99.90
2019-06-26T00:57:34.582Z,99.90
2019-06-26T01:00:09.455Z,99.90
2019-06-26T01:02:40.883Z,99.90
2019-06-26T01:05:13.614Z,99.90
2019-06-26T01:07:44.796Z,99.90
2019-06-26T01:10:16.165Z,99.90
2019-06-26T01:12:47.561Z,99.90
2019-06-26T01:15:18.803Z,99.90
2019-06-26T01:17:50.044Z,99.90
2019-06-26T01:20:21.162Z,99.90
2019-06-26T01:22:52.321Z,99.90
2019-06-26T01:25:23.547Z,99.90
2019-06-26T01:27:54.565Z,99.90
2019-06-26T01:30:25.852Z,99.90
2019-06-26T01:32:56.950Z,99.90
2019-06-26T01:35:28.089Z,99.90
2019-06-26T01:37:59.119Z,99.90
2019-06-26T01:40:30.319Z,99.90
2019-06-26T01:43:01.360Z,99.90
2019-06-26T01:45:32.453Z,99.90
2019-06-26T01:48:03.651Z,99.90
2019-06-26T01:50:34.761Z,99.90
2019-06-26T01:53:05.846Z,99.90
2019-06-26T01:55:36.992Z,99.90
2019-06-26T01:58:08.156Z,99.90
2019-06-26T02:00:39.205Z,99.90
2019-06-26T02:03:10.448Z,99.90
2019-06-26T02:05:41.479Z,99.90
2019-06-26T02:08:12.664Z,99.90
2019-06-26T02:10:43.967Z,99.90
2019-06-26T02:13:14.970Z,99.90
2019-06-26T02:15:46.044Z,99.90
2019-06-26T02:18:36.112Z,99.90
2019-06-26T02:21:07.219Z,99.90
2019-06-26T02:23:38.515Z,99.90
2019-06-26T02:26:09.669Z,99.90
2019-06-26T02:28:40.792Z,99.90
2019-06-26T02:31:12.066Z,99.90
2019-06-26T02:33:43.147Z,99.90
2019-06-26T02:36:14.289Z,99.90
2019-06-26T02:38:45.395Z,99.90
2019-06-26T02:41:16.602Z,99.90
2019-06-26T02:43:47.731Z,99.90
2019-06-26T02:46:18.761Z,99.90
2019-06-26T02:48:49.822Z,99.90
2019-06-26T02:51:20.933Z,99.90
2019-06-26T02:53:51.995Z,99.90
2019-06-26T02:56:23.107Z,99.90
2019-06-26T02:58:54.262Z,99.90
2019-06-26T03:01:25.297Z,99.90
2019-06-26T03:03:56.423Z,99.90
2019-06-26T03:06:27.547Z,99.90
2019-06-26T03:08:58.646Z,99.90
2019-06-26T03:11:29.984Z,99.90
2019-06-26T03:14:01.210Z,99.90
2019-06-26T03:16:32.405Z,99.90
2019-06-26T03:19:03.514Z,99.90
2019-06-26T03:21:34.701Z,99.90
2019-06-26T03:24:05.883Z,99.90
2019-06-26T03:26:37.016Z,99.90
2019-06-26T03:29:08.157Z,99.90
2019-06-26T03:31:39.316Z,99.90
2019-06-26T03:34:10.375Z,99.90
2019-06-26T03:36:41.521Z,99.90
2019-06-26T03:39:12.555Z,99.90
2019-06-26T03:41:43.635Z,99.90
2019-06-26T03:44:14.723Z,99.90
2019-06-26T03:46:45.967Z,99.90
2019-06-26T03:49:17.280Z,99.90
2019-06-26T03:51:48.441Z,99.90
2019-06-26T03:54:19.542Z,99.90
2019-06-26T03:56:50.625Z,99.90
2019-06-26T03:59:21.685Z,99.90
2019-06-26T04:01:52.853Z,99.90
2019-06-26T04:04:23.879Z,99.90
2019-06-26T04:06:55.002Z,99.90
2019-06-26T04:09:26.140Z,99.90
2019-06-26T04:11:57.261Z,99.90
2019-06-26T04:14:28.305Z,99.90
2019-06-26T04:16:59.439Z,99.90
2019-06-26T04:19:30.585Z,99.90
2019-06-26T04:22:01.829Z,99.90
2019-06-26T04:24:32.894Z,99.90
2019-06-26T04:27:04.047Z,99.90
2019-06-26T04:29:35.168Z,99.90
2019-06-26T04:32:06.287Z,99.90
2019-06-26T04:34:37.442Z,99.90
2019-06-26T04:37:08.546Z,99.90
2019-06-26T04:39:39.633Z,99.90
2019-06-26T04:42:10.744Z,99.90
2019-06-26T04:44:41.857Z,99.90
2019-06-26T04:47:12.923Z,99.90
2019-06-26T04:49:43.978Z,99.90
2019-06-26T04:52:14.993Z,99.90
2019-06-26T04:54:46.582Z,99.90
2019-06-26T04:57:17.617Z,99.90
2019-06-26T04:59:49.629Z,99.90
2019-06-26T05:02:20.857Z,99.90
2019-06-26T05:04:51.999Z,99.90
2019-06-26T05:07:23.076Z,99.90
2019-06-26T05:09:54.107Z,99.90
2019-06-26T05:12:25.213Z,99.90
2019-06-26T05:14:56.275Z,99.90
2019-06-26T05:17:27.427Z,99.90
2019-06-26T05:19:58.583Z,99.90
2019-06-26T05:22:29.790Z,99.90
2019-06-26T05:25:01.487Z,99.90
2019-06-26T05:27:32.680Z,99.90
2019-06-26T05:30:04.015Z,99.90
2019-06-26T05:32:35.139Z,99.90
2019-06-26T05:35:06.882Z,99.90
2019-06-26T05:37:37.957Z,99.90
2019-06-26T05:40:10.057Z,99.90
2019-06-26T05:42:41.144Z,99.90
2019-06-26T05:45:14.136Z,99.90
2019-06-26T05:47:45.224Z,99.90
2019-06-26T05:50:17.164Z,99.90
2019-06-26T05:52:48.294Z,99.90
2019-06-26T05:55:20.950Z,99.90
2019-06-26T05:57:52.157Z,99.90
2019-06-26T06:00:23.499Z,99.90
2019-06-26T06:02:54.556Z,99.90
2019-06-26T06:05:25.710Z,99.90
2019-06-26T06:07:56.771Z,99.90
2019-06-26T06:10:28.053Z,99.90
2019-06-26T06:12:59.172Z,99.90
2019-06-26T06:15:30.331Z,99.90
2019-06-26T06:18:01.390Z,99.90
2019-06-26T06:20:37.999Z,99.90
2019-06-26T06:23:09.173Z,99.90
2019-06-26T06:25:40.586Z,99.90
2019-06-26T06:28:11.670Z,99.90
2019-06-26T06:30:42.797Z,99.90
2019-06-26T06:33:13.884Z,99.90
2019-06-26T06:35:45.002Z,99.90
2019-06-26T06:38:16.125Z,99.90
2019-06-26T06:40:47.197Z,99.90
2019-06-26T06:43:18.694Z,99.90
2019-06-26T06:45:49.780Z,99.90
2019-06-26T06:48:20.848Z,99.90
2019-06-26T06:50:53.145Z,99.90
2019-06-26T06:53:24.226Z,99.90
2019-06-26T06:55:55.354Z,99.90
2019-06-26T06:58:30.067Z,99.90
2019-06-26T07:00:59.467Z,99.90
2019-06-26T07:03:30.609Z,99.90
2019-06-26T07:06:01.697Z,99.90
2019-06-26T07:08:32.948Z,99.90
2019-06-26T07:11:04.037Z,99.90
2019-06-26T07:13:35.483Z,99.90
2019-06-26T07:16:06.883Z,99.90
2019-06-26T07:18:38.265Z,99.90
2019-06-26T07:21:09.641Z,99.90
2019-06-26T07:23:40.726Z,99.90
2019-06-26T07:26:13.434Z,99.90
2019-06-26T07:28:44.826Z,99.90
2019-06-26T07:31:16.097Z,99.90
2019-06-26T07:33:47.542Z,99.90
2019-06-26T07:36:18.727Z,99.90
2019-06-26T07:38:50.003Z,99.90
2019-06-26T07:41:21.190Z,99.90
2019-06-26T07:43:52.342Z,99.90
2019-06-26T07:46:23.478Z,99.90
2019-06-26T07:48:57.515Z,99.90
2019-06-26T07:51:27.485Z,99.90
2019-06-26T07:53:58.678Z,99.90
2019-06-26T07:56:29.819Z,99.90
2019-06-26T07:59:00.949Z,99.90
2019-06-26T08:01:32.180Z,99.90
2019-06-26T08:04:03.246Z,98.70
2019-06-26T08:06:34.358Z,98.30
2019-06-26T08:09:06.944Z,98.00
2019-06-26T08:11:38.114Z,96.80
2019-06-26T08:14:09.263Z,96.70
2019-06-26T08:16:40.362Z,94.70
2019-06-26T08:19:11.453Z,94.60
2019-06-26T08:21:45.713Z,95.30
2019-06-26T08:24:15.346Z,95.60
2019-06-26T08:26:46.437Z,95.50
2019-06-26T08:29:18.637Z,94.50
2019-06-26T08:31:49.734Z,94.80
2019-06-26T08:34:21.118Z,92.50
2019-06-26T08:36:52.259Z,91.70
2019-06-26T08:39:23.634Z,89.00
2019-06-26T08:41:54.820Z,88.80
2019-06-26T08:44:25.992Z,87.50
2019-06-26T08:46:57.181Z,90.30
2019-06-26T08:49:28.397Z,90.10
2019-06-26T08:51:59.712Z,90.10
2019-06-26T08:54:30.856Z,86.70
2019-06-26T08:57:01.940Z,84.60
2019-06-26T08:59:33.097Z,85.30
2019-06-26T09:02:04.388Z,84.20
2019-06-26T09:04:35.576Z,81.40
2019-06-26T09:07:06.697Z,81.00
2019-06-26T09:09:37.864Z,81.80
2019-06-26T09:12:09.121Z,81.40
2019-06-26T09:14:40.414Z,79.30
2019-06-26T09:17:12.139Z,78.90
2019-06-26T09:19:43.951Z,77.80
2019-06-26T09:22:15.203Z,77.60
2019-06-26T09:24:46.394Z,73.60
2019-06-26T09:27:17.879Z,78.40
2019-06-26T09:29:49.168Z,74.70
2019-06-26T09:32:20.365Z,75.60
2019-06-26T09:34:51.749Z,72.50
2019-06-26T09:37:23.094Z,74.50
2019-06-26T09:39:54.329Z,75.30
2019-06-26T09:42:26.551Z,75.10
2019-06-26T09:44:57.719Z,74.80
2019-06-26T09:47:30.969Z,78.40
2019-06-26T09:50:01.933Z,76.10
2019-06-26T09:52:34.269Z,77.50
2019-06-26T09:55:06.445Z,77.60
2019-06-26T09:57:37.598Z,74.80
2019-06-26T10:00:09.344Z,74.30
2019-06-26T10:02:40.555Z,69.40
2019-06-26T10:05:11.985Z,71.00
2019-06-26T10:07:43.151Z,68.00
2019-06-26T10:10:15.874Z,65.00
2019-06-26T10:12:47.258Z,63.90
2019-06-26T10:15:18.677Z,67.70
2019-06-26T10:17:49.890Z,65.50
2019-06-26T10:20:21.046Z,62.80
2019-06-26T10:22:52.233Z,65.70
2019-06-26T10:25:23.451Z,63.30
2019-06-26T10:27:54.613Z,62.70
2019-06-26T10:30:25.839Z,64.60
2019-06-26T10:32:56.999Z,62.70
2019-06-26T10:35:28.319Z,65.70
2019-06-26T10:37:59.480Z,64.80
2019-06-26T10:40:30.623Z,61.60
2019-06-26T10:43:01.797Z,61.60
2019-06-26T10:45:35.919Z,61.90
2019-06-26T10:48:05.930Z,60.30
2019-06-26T10:50:48.208Z,59.60
2019-06-26T10:53:09.888Z,59.00
2019-06-26T10:55:41.057Z,58.00
2019-06-26T10:58:12.193Z,59.40
2019-06-26T11:00:46.033Z,58.50
2019-06-26T11:03:17.112Z,58.60
2019-06-26T11:05:48.276Z,60.50
2019-06-26T11:08:19.693Z,58.50
2019-06-26T11:10:50.989Z,59.60
2019-06-26T11:13:23.397Z,57.80
2019-06-26T11:15:55.883Z,59.90
2019-06-26T11:18:27.519Z,59.30
2019-06-26T11:21:00.531Z,56.20
2019-06-26T11:23:34.774Z,56.30
2019-06-26T11:26:06.304Z,57.00
2019-06-26T11:28:37.440Z,56.70
2019-06-26T11:31:08.658Z,57.60
2019-06-26T11:33:40.878Z,55.30
2019-06-26T11:36:12.037Z,58.20
2019-06-26T11:38:43.184Z,57.00
2019-06-26T11:41:14.353Z,56.90
2019-06-26T11:43:46.465Z,55.20
2019-06-26T11:46:17.650Z,56.00
2019-06-26T11:48:49.111Z,55.80
2019-06-26T11:51:20.332Z,57.80
2019-06-26T11:53:51.554Z,57.30
2019-06-26T11:56:22.674Z,55.30
2019-06-26T11:58:53.812Z,54.50
2019-06-26T12:01:24.933Z,53.00
2019-06-26T12:03:56.069Z,53.20
2019-06-26T12:06:27.117Z,53.50
2019-06-26T12:08:58.251Z,52.90
2019-06-26T12:11:29.398Z,53.70
2019-06-26T12:14:00.638Z,54.50
2019-06-26T12:16:31.763Z,53.90
2019-06-26T12:19:02.899Z,55.30
2019-06-26T12:21:34.121Z,55.20
2019-06-26T12:24:06.032Z,55.90
2019-06-26T12:26:37.082Z,54.30
2019-06-26T12:29:08.201Z,53.50
2019-06-26T12:31:39.368Z,52.70
2019-06-26T12:34:10.530Z,56.50
2019-06-26T12:36:41.855Z,56.10
2019-06-26T12:39:12.966Z,52.90
2019-06-26T12:41:44.171Z,54.80
2019-06-26T12:44:15.271Z,53.90
2019-06-26T12:46:46.280Z,55.20
2019-06-26T12:49:17.556Z,54.90
2019-06-26T12:51:48.870Z,54.30
2019-06-26T12:54:20.058Z,54.60
2019-06-26T12:56:51.454Z,52.90
2019-06-26T12:59:22.730Z,55.60
2019-06-26T13:01:53.960Z,54.10
2019-06-26T13:04:25.160Z,54.70
2019-06-26T13:06:59.060Z,55.10
2019-06-26T13:09:30.151Z,55.00
2019-06-26T13:12:01.351Z,55.80
2019-06-26T13:14:32.612Z,56.60
2019-06-26T13:17:03.955Z,56.60
2019-06-26T13:19:35.193Z,55.00
2019-06-26T13:22:06.403Z,53.00
2019-06-26T13:24:37.572Z,54.60
2019-06-26T13:27:08.997Z,56.00
2019-06-26T13:29:40.208Z,53.70
2019-06-26T13:32:11.345Z,53.30
2019-06-26T13:34:42.635Z,53.10
2019-06-26T13:37:13.761Z,51.00
2019-06-26T13:39:44.909Z,50.70
2019-06-26T13:42:16.303Z,52.40
2019-06-26T13:44:47.504Z,51.80
2019-06-26T13:47:18.861Z,49.30
2019-06-26T13:49:50.446Z,51.10
2019-06-26T13:52:21.794Z,49.20
2019-06-26T13:54:52.909Z,49.10
2019-06-26T13:57:24.065Z,47.50
2019-06-26T13:59:55.233Z,47.90
2019-06-26T14:02:26.469Z,49.90
2019-06-26T14:04:58.576Z,49.00
2019-06-26T14:07:30.717Z,48.90
2019-06-26T14:10:01.798Z,47.20
2019-06-26T14:12:32.910Z,48.50
2019-06-26T14:15:04.179Z,48.30
2019-06-26T14:17:35.283Z,48.80
2019-06-26T14:20:06.985Z,48.80
2019-06-26T14:22:38.098Z,47.90
2019-06-26T14:25:09.504Z,47.40
2019-06-26T14:27:42.864Z,49.00
2019-06-26T14:30:14.193Z,47.70
2019-06-26T14:32:45.300Z,48.10
2019-06-26T14:35:16.935Z,48.40
2019-06-26T14:37:48.078Z,49.30
2019-06-26T14:40:19.138Z,48.70
2019-06-26T14:42:50.431Z,50.30
2019-06-26T14:45:21.628Z,49.80
2019-06-26T14:47:52.842Z,49.30
2019-06-26T14:50:24.072Z,48.70
2019-06-26T14:52:55.297Z,49.80
2019-06-26T14:55:26.490Z,48.20
2019-06-26T14:57:58.462Z,49.30
2019-06-26T15:00:29.816Z,50.20
2019-06-26T15:03:01.538Z,50.70
2019-06-26T15:05:32.776Z,49.70
2019-06-26T15:08:03.955Z,51.10
2019-06-26T15:10:35.186Z,51.20
2019-06-26T15:13:06.326Z,51.40
2019-06-26T15:15:37.529Z,50.90
2019-06-26T15:18:10.208Z,51.00
2019-06-26T15:20:41.518Z,51.40
2019-06-26T15:23:12.566Z,52.00
2019-06-26T15:25:43.803Z,51.40
2019-06-26T15:28:14.936Z,50.90
2019-06-26T15:30:46.280Z,51.10
2019-06-26T15:33:18.958Z,51.70
2019-06-26T15:35:50.235Z,52.90
2019-06-26T15:38:21.493Z,53.40
2019-06-26T15:40:52.545Z,53.00
2019-06-26T15:43:24.845Z,53.40
2019-06-26T15:45:56.011Z,53.00
2019-06-26T15:48:27.143Z,52.30
2019-06-26T15:50:58.310Z,54.20
2019-06-26T15:53:29.344Z,52.00
2019-06-26T15:56:00.510Z,51.70
2019-06-26T15:58:31.532Z,51.50
2019-06-26T16:01:02.588Z,52.10
2019-06-26T16:03:33.749Z,52.30
2019-06-26T16:06:05.095Z,53.20
2019-06-26T16:08:36.194Z,52.60
2019-06-26T16:11:07.330Z,53.40
2019-06-26T16:13:38.376Z,53.30
2019-06-26T16:16:09.481Z,52.30
2019-06-26T16:18:47.945Z,52.90
2019-06-26T16:21:19.075Z,52.70
2019-06-26T16:23:50.224Z,52.80
2019-06-26T16:26:21.308Z,53.10
2019-06-26T16:28:52.468Z,52.80
2019-06-26T16:31:23.573Z,53.70
2019-06-26T16:33:54.739Z,54.40
2019-06-26T16:36:25.981Z,53.70
2019-06-26T16:39:02.657Z,54.30
2019-06-26T16:41:34.281Z,53.70
2019-06-26T16:44:05.582Z,54.00
2019-06-26T16:46:36.670Z,54.20
2019-06-26T16:49:08.859Z,54.70
2019-06-26T16:51:39.979Z,54.70
2019-06-26T16:54:12.094Z,55.90
2019-06-26T16:56:43.156Z,56.40
2019-06-26T16:59:15.652Z,56.80
2019-06-26T17:01:46.957Z,57.60
2019-06-26T17:04:18.107Z,57.50
2019-06-26T17:06:49.323Z,58.50
2019-06-26T17:09:20.488Z,57.60
2019-06-26T17:11:51.810Z,56.70
2019-06-26T17:14:23.020Z,57.40
2019-06-26T17:16:54.120Z,56.50
2019-06-26T17:19:25.219Z,57.30
2019-06-26T17:21:56.397Z,57.20
2019-06-26T17:24:27.573Z,57.60
2019-06-26T17:26:59.536Z,57.80
2019-06-26T17:29:30.872Z,57.60
2019-06-26T17:32:02.125Z,58.90
2019-06-26T17:34:33.285Z,58.40
2019-06-26T17:37:07.544Z,59.10
2019-06-26T17:39:39.149Z,57.80
2019-06-26T17:42:10.358Z,57.90
2019-06-26T17:44:41.590Z,58.10
2019-06-26T17:47:12.902Z,58.30
2019-06-26T17:49:44.134Z,59.30
2019-06-26T17:52:15.256Z,58.90
2019-06-26T17:54:46.832Z,60.50
2019-06-26T17:57:17.950Z,60.20
2019-06-26T17:59:53.301Z,59.90
2019-06-26T18:02:24.443Z,60.10
2019-06-26T18:04:55.536Z,60.10
2019-06-26T18:07:26.638Z,61.30
2019-06-26T18:09:57.892Z,63.20
2019-06-26T18:12:30.003Z,64.90
2019-06-26T18:15:01.466Z,65.90
2019-06-26T18:17:32.686Z,65.90
2019-06-26T18:20:04.492Z,66.20
2019-06-26T18:22:35.738Z,67.20
2019-06-26T18:25:08.145Z,68.00
2019-06-26T18:27:39.281Z,68.70
2019-06-26T18:30:10.816Z,69.50
2019-06-26T18:32:41.956Z,69.80
2019-06-26T18:35:13.090Z,72.20
2019-06-26T18:37:44.313Z,71.10
2019-06-26T18:40:16.532Z,72.10
2019-06-26T18:42:47.764Z,72.80
2019-06-26T18:45:19.064Z,73.40
2019-06-26T18:47:50.404Z,74.30
2019-06-26T18:50:21.637Z,74.70
2019-06-26T18:52:53.081Z,75.10
2019-06-26T18:55:24.277Z,75.20
2019-06-26T18:57:56.588Z,76.00
2019-06-26T19:00:28.134Z,76.10
2019-06-26T19:02:59.337Z,76.70
2019-06-26T19:05:31.485Z,77.30
2019-06-26T19:08:02.905Z,77.50
2019-06-26T19:10:34.167Z,78.40
2019-06-26T19:13:05.375Z,79.00
2019-06-26T19:15:36.950Z,79.80
2019-06-26T19:18:10.180Z,79.70
2019-06-26T19:20:41.984Z,80.10
2019-06-26T19:23:13.392Z,80.40
2019-06-26T19:25:45.540Z,80.30
2019-06-26T19:28:16.656Z,80.40
2019-06-26T19:30:47.781Z,80.60
2019-06-26T19:33:19.124Z,80.70
2019-06-26T19:35:50.266Z,80.90
2019-06-26T19:38:21.594Z,81.10
2019-06-26T19:40:52.860Z,81.50
2019-06-26T19:43:24.143Z,81.90
2019-06-26T19:45:55.284Z,82.50
2019-06-26T19:48:26.645Z,83.30
2019-06-26T19:50:58.507Z,84.10
2019-06-26T19:53:29.810Z,85.00
2019-06-26T19:56:03.487Z,86.10
2019-06-26T19:58:34.806Z,87.60
2019-06-26T20:01:05.873Z,88.50
2019-06-26T20:03:36.973Z,90.20
2019-06-26T20:06:08.048Z,90.20
2019-06-26T20:08:52.224Z,90.90
2019-06-26T20:11:11.867Z,91.30
2019-06-26T20:13:43.130Z,91.80
2019-06-26T20:16:14.699Z,93.00
2019-06-26T20:18:45.855Z,93.60
2019-06-26T20:21:17.043Z,94.10
2019-06-26T20:23:48.156Z,94.90
2019-06-26T20:26:19.497Z,95.60
2019-06-26T20:28:50.683Z,96.60
2019-06-26T20:31:21.748Z,97.70
2019-06-26T20:33:52.937Z,98.00
2019-06-26T20:36:24.118Z,98.60
2019-06-26T20:38:55.275Z,99.20
2019-06-26T20:41:26.561Z,99.90
2019-06-26T20:43:57.690Z,99.90
2019-06-26T20:46:28.779Z,99.90
2019-06-26T20:49:00.062Z,99.90
2019-06-26T20:51:32.455Z,99.90
2019-06-26T20:54:03.697Z,99.90
2019-06-26T20:56:34.907Z,99.90
2019-06-26T20:59:07.021Z,99.90
2019-06-26T21:01:38.148Z,99.90
2019-06-26T21:04:09.448Z,99.90
2019-06-26T21:06:40.860Z,99.90
2019-06-26T21:09:12.082Z,99.90
2019-06-26T21:11:43.233Z,99.90
2019-06-26T21:14:14.622Z,99.90
2019-06-26T21:16:46.292Z,99.90
2019-06-26T21:19:31.399Z,99.90
2019-06-26T21:22:03.072Z,99.90
2019-06-26T21:24:34.254Z,99.90
2019-06-26T21:27:05.497Z,99.90
2019-06-26T21:29:36.799Z,99.90
2019-06-26T21:32:09.241Z,99.90
2019-06-26T21:34:41.762Z,99.90
2019-06-26T21:37:14.105Z,99.90
2019-06-26T21:39:46.412Z,99.90
2019-06-26T21:42:19.506Z,99.90
2019-06-26T21:44:50.960Z,99.90
2019-06-26T21:47:22.489Z,99.90
2019-06-26T21:49:54.001Z,99.90
2019-06-26T21:52:25.224Z,99.90
2019-06-26T21:54:56.347Z,99.90
2019-06-26T21:57:45.435Z,99.90
2019-06-26T22:00:36.739Z,99.90
2019-06-26T22:03:25.979Z,99.90
2019-06-26T22:05:58.929Z,99.90
2019-06-26T22:08:34.316Z,99.90
2019-06-26T22:11:07.027Z,99.90
2019-06-26T22:13:38.257Z,99.90
2019-06-26T22:16:09.370Z,99.90
2019-06-26T22:18:40.485Z,99.90
2019-06-26T22:21:11.633Z,99.90
2019-06-26T22:23:42.709Z,99.90
2019-06-26T22:26:14.502Z,99.90
2019-06-26T22:28:45.968Z,99.90
2019-06-26T22:31:17.094Z,99.90
2019-06-26T22:33:48.196Z,99.90
2019-06-26T22:36:19.841Z,99.90
2019-06-26T22:38:51.026Z,99.90
2019-06-26T22:41:22.258Z,99.90
2019-06-26T22:43:53.340Z,99.90
2019-06-26T22:46:24.571Z,99.90
2019-06-26T22:48:55.736Z,99.90
2019-06-26T22:51:27.163Z,99.90
2019-06-26T22:53:58.254Z,99.90
2019-06-26T22:56:30.543Z,99.90
2019-06-26T22:59:01.617Z,99.90
2019-06-26T23:01:32.757Z,99.90
2019-06-26T23:04:03.910Z,99.90
2019-06-26T23:06:37.456Z,99.90
2019-06-26T23:09:08.074Z,99.90
2019-06-26T23:11:39.183Z,99.90
2019-06-26T23:14:10.246Z,99.90
2019-06-26T23:16:41.444Z,99.90
2019-06-26T23:19:14.933Z,99.90
2019-06-26T23:21:45.389Z,99.90
2019-06-26T23:24:16.485Z,99.90
2019-06-26T23:26:47.701Z,99.90
2019-06-26T23:29:18.844Z,99.90
2019-06-26T23:31:49.969Z,99.90
2019-06-26T23:34:21.071Z,99.90
2019-06-26T23:36:52.298Z,99.90
2019-06-26T23:39:23.458Z,99.90
2019-06-26T23:41:54.610Z,99.90
2019-06-26T23:44:25.657Z,99.90
2019-06-26T23:46:56.749Z,99.90
2019-06-26T23:49:27.847Z,99.90
2019-06-26T23:51:58.972Z,99.90
2019-06-26T23:54:30.011Z,99.90
2019-06-26T23:57:01.105Z,99.90
2019-06-26T23:59:32.198Z,99.90
